createdAt,value
2023-04-28T00:02:02.206Z,6.28
2023-04-28T00:04:29.177Z,9.45
2023-04-28T00:06:55.795Z,7.80
2023-04-28T00:09:22.564Z,8.63
2023-04-28T00:11:49.031Z,7.00
2023-04-28T00:14:15.942Z,5.15
2023-04-28T00:16:42.886Z,10.30
2023-04-28T00:19:09.660Z,9.80
2023-04-28T00:21:36.153Z,13.68
2023-04-28T00:24:02.656Z,9.48
2023-04-28T00:26:29.131Z,4.47
2023-04-28T00:28:55.582Z,13.20
2023-04-28T00:31:22.236Z,8.20
2023-04-28T00:33:48.721Z,9.20
2023-04-28T00:36:15.634Z,5.57
2023-04-28T00:38:42.174Z,6.53
2023-04-28T00:41:10.153Z,6.68
2023-04-28T00:43:49.414Z,8.35
2023-04-28T00:46:27.078Z,8.32
2023-04-28T00:48:53.574Z,6.38
2023-04-28T00:51:20.126Z,6.28
2023-04-28T00:53:46.679Z,7.80
2023-04-28T00:56:13.242Z,6.47
2023-04-28T00:58:39.767Z,9.38
2023-04-28T01:01:07.159Z,8.65
2023-04-28T01:03:42.701Z,8.45
2023-04-28T01:06:09.475Z,6.22
2023-04-28T01:08:36.609Z,5.93
2023-04-28T01:11:03.366Z,7.70
2023-04-28T01:13:29.838Z,4.88
2023-04-28T01:15:56.597Z,8.02
2023-04-28T01:18:24.284Z,7.20
2023-04-28T01:20:50.742Z,6.95
2023-04-28T01:23:17.320Z,8.77
2023-04-28T01:25:43.915Z,13.68
2023-04-28T01:28:11.912Z,9.82
2023-04-28T01:30:38.488Z,5.78
2023-04-28T01:33:05.075Z,4.82
2023-04-28T01:35:31.720Z,6.47
2023-04-28T01:37:58.309Z,8.82
2023-04-28T01:40:24.912Z,6.53
2023-04-28T01:42:51.436Z,7.65
2023-04-28T01:45:17.934Z,9.68
2023-04-28T01:47:44.601Z,7.13
2023-04-28T01:50:11.489Z,6.80
2023-04-28T01:52:38.016Z,9.23
2023-04-28T01:55:05.037Z,7.75
2023-04-28T01:57:31.750Z,5.32
2023-04-28T01:59:59.491Z,11.35
2023-04-28T02:02:26.114Z,8.25
2023-04-28T02:04:52.834Z,9.18
2023-04-28T02:07:19.401Z,5.93
2023-04-28T02:09:46.300Z,8.50
2023-04-28T02:12:12.887Z,7.60
2023-04-28T02:14:39.438Z,6.50
2023-04-28T02:17:06.156Z,7.28
2023-04-28T02:19:32.618Z,6.97
2023-04-28T02:21:59.114Z,9.13
2023-04-28T02:24:25.612Z,4.30
2023-04-28T02:26:52.078Z,11.77
2023-04-28T02:29:18.570Z,5.88
2023-04-28T02:31:45.080Z,9.40
2023-04-28T02:34:11.662Z,7.90
2023-04-28T02:36:39.216Z,6.43
2023-04-28T02:39:05.702Z,14.20
2023-04-28T02:41:34.492Z,4.30
2023-04-28T02:44:00.958Z,11.30
2023-04-28T02:46:27.587Z,4.50
2023-04-28T02:48:54.070Z,7.50
2023-04-28T02:51:20.525Z,8.02
2023-04-28T02:53:47.162Z,4.90
2023-04-28T02:56:13.622Z,10.65
2023-04-28T02:58:40.106Z,7.47
2023-04-28T03:01:06.710Z,5.40
2023-04-28T03:03:33.725Z,7.28
2023-04-28T03:06:00.383Z,10.68
2023-04-28T03:08:26.919Z,4.35
2023-04-28T03:10:53.463Z,10.55
2023-04-28T03:13:19.971Z,6.40
2023-04-28T03:15:46.933Z,6.15
2023-04-28T03:18:13.396Z,7.22
2023-04-28T03:20:39.868Z,6.50
2023-04-28T03:23:07.469Z,8.07
2023-04-28T03:25:33.953Z,9.35
2023-04-28T03:28:00.440Z,8.57
2023-04-28T03:30:26.938Z,4.55
2023-04-28T03:32:53.623Z,4.80
2023-04-28T03:35:20.128Z,5.03
2023-04-28T03:37:46.724Z,5.30
2023-04-28T03:40:13.298Z,6.57
2023-04-28T03:42:39.775Z,6.78
2023-04-28T03:45:07.059Z,10.52
2023-04-28T03:47:33.598Z,7.13
2023-04-28T03:50:00.167Z,7.78
2023-04-28T03:52:27.479Z,8.20
2023-04-28T03:54:54.018Z,8.02
2023-04-28T03:57:20.499Z,6.88
2023-04-28T03:59:47.064Z,10.80
2023-04-28T04:02:13.581Z,9.23
2023-04-28T04:04:40.287Z,14.75
2023-04-28T04:07:07.401Z,8.30
2023-04-28T04:09:33.867Z,6.15
2023-04-28T04:12:01.231Z,5.85
2023-04-28T04:14:27.719Z,4.50
2023-04-28T04:16:55.427Z,5.85
2023-04-28T04:19:23.996Z,6.65
2023-04-28T04:21:50.778Z,6.97
2023-04-28T04:24:17.413Z,4.90
2023-04-28T04:26:44.133Z,11.10
2023-04-28T04:29:10.819Z,9.10
2023-04-28T04:31:37.605Z,6.93
2023-04-28T04:34:04.165Z,8.48
2023-04-28T04:36:30.689Z,6.13
2023-04-28T04:38:57.153Z,5.40
2023-04-28T04:41:23.712Z,3.97
2023-04-28T04:43:50.357Z,5.57
2023-04-28T04:46:17.085Z,8.00
2023-04-28T04:48:43.645Z,6.70
2023-04-28T04:51:10.149Z,8.25
2023-04-28T04:53:36.710Z,6.47
2023-04-28T04:56:03.433Z,5.82
2023-04-28T04:58:29.979Z,16.83
2023-04-28T05:00:56.442Z,6.60
2023-04-28T05:03:23.124Z,8.32
2023-04-28T05:05:49.808Z,8.25
2023-04-28T05:08:16.269Z,10.07
2023-04-28T05:10:42.773Z,9.35
2023-04-28T05:13:10.525Z,7.35
2023-04-28T05:15:37.051Z,5.75
2023-04-28T05:18:09.656Z,5.05
2023-04-28T05:20:36.371Z,7.60
2023-04-28T05:23:02.849Z,3.95
2023-04-28T05:25:29.316Z,6.35
2023-04-28T05:27:56.261Z,5.72
2023-04-28T05:30:22.762Z,5.70
2023-04-28T05:32:49.295Z,7.40
2023-04-28T05:35:15.905Z,5.32
2023-04-28T05:37:43.630Z,11.48
2023-04-28T05:40:10.608Z,9.38
2023-04-28T05:42:37.143Z,5.18
2023-04-28T05:45:03.793Z,16.90
2023-04-28T05:47:31.144Z,12.55
2023-04-28T05:49:57.770Z,5.40
2023-04-28T05:52:24.215Z,12.45
2023-04-28T05:54:50.844Z,11.70
2023-04-28T05:57:17.427Z,6.07
2023-04-28T05:59:43.874Z,5.07
2023-04-28T06:02:10.412Z,6.47
2023-04-28T06:04:37.166Z,6.07
2023-04-28T06:07:03.741Z,9.18
2023-04-28T06:09:30.302Z,5.68
2023-04-28T06:11:56.833Z,6.60
2023-04-28T06:14:23.352Z,8.15
2023-04-28T06:16:50.813Z,6.28
2023-04-28T06:19:18.926Z,13.95
2023-04-28T06:21:46.307Z,12.65
2023-04-28T06:24:12.791Z,7.65
2023-04-28T06:26:39.424Z,15.10
2023-04-28T06:29:05.926Z,10.10
2023-04-28T06:31:32.444Z,11.55
2023-04-28T06:33:58.931Z,7.70
2023-04-28T06:36:25.524Z,9.88
2023-04-28T06:38:51.985Z,10.98
2023-04-28T06:41:18.754Z,7.07
2023-04-28T06:43:45.368Z,10.02
2023-04-28T06:46:11.950Z,12.90
2023-04-28T06:48:38.637Z,13.65
2023-04-28T06:51:05.127Z,12.13
2023-04-28T06:53:31.621Z,10.50
2023-04-28T06:55:58.175Z,7.22
2023-04-28T06:58:24.794Z,12.82
2023-04-28T07:00:51.340Z,11.35
2023-04-28T07:03:18.014Z,6.30
2023-04-28T07:05:44.594Z,16.35
2023-04-28T07:08:11.223Z,13.82
2023-04-28T07:10:37.711Z,13.00
2023-04-28T07:13:04.175Z,10.10
2023-04-28T07:15:31.406Z,9.60
2023-04-28T07:17:59.632Z,10.32
2023-04-28T07:20:26.339Z,9.43
2023-04-28T07:22:53.015Z,20.48
2023-04-28T07:25:19.510Z,11.63
2023-04-28T07:27:46.757Z,8.88
2023-04-28T07:30:26.744Z,9.20
2023-04-28T07:32:54.175Z,16.48
2023-04-28T07:35:20.740Z,10.15
2023-04-28T07:37:47.241Z,11.20
2023-04-28T07:40:13.787Z,13.38
2023-04-28T07:42:40.275Z,9.60
2023-04-28T07:45:07.198Z,11.77
2023-04-28T07:47:33.780Z,10.95
2023-04-28T07:50:04.682Z,15.15
2023-04-28T07:52:31.758Z,12.68
2023-04-28T07:54:58.936Z,12.02
2023-04-28T07:57:25.873Z,11.93
2023-04-28T07:59:52.845Z,13.95
2023-04-28T08:02:20.499Z,12.57
2023-04-28T08:04:47.298Z,14.90
2023-04-28T08:07:13.903Z,13.57
2023-04-28T08:09:42.824Z,11.85
2023-04-28T08:12:09.318Z,15.35
2023-04-28T08:14:35.979Z,14.25
2023-04-28T08:17:02.743Z,20.23
2023-04-28T08:19:29.244Z,11.25
2023-04-28T08:21:55.770Z,11.80
2023-04-28T08:24:22.377Z,13.77
2023-04-28T08:26:49.098Z,13.00
2023-04-28T08:29:15.809Z,16.50
2023-04-28T08:31:42.456Z,10.95
2023-04-28T08:34:09.026Z,12.68
2023-04-28T08:36:35.579Z,15.13
2023-04-28T08:39:04.242Z,15.23
2023-04-28T08:41:32.499Z,14.43
2023-04-28T08:43:58.961Z,11.40
2023-04-28T08:46:25.555Z,13.50
2023-04-28T08:48:52.085Z,12.60
2023-04-28T08:51:33.711Z,12.35
2023-04-28T08:56:32.118Z,12.48
2023-04-28T08:59:00.790Z,12.82
2023-04-28T09:01:27.347Z,12.85
2023-04-28T09:03:54.522Z,14.63
2023-04-28T09:06:22.123Z,11.20
2023-04-28T09:08:48.847Z,12.50
2023-04-28T09:11:16.498Z,10.90
2023-04-28T09:13:42.990Z,12.55
2023-04-28T09:16:09.690Z,10.00
2023-04-28T09:18:36.295Z,13.43
2023-04-28T09:21:07.412Z,11.80
2023-04-28T09:23:34.071Z,12.48
2023-04-28T09:26:01.278Z,14.88
2023-04-28T09:28:28.849Z,13.90
2023-04-28T09:30:55.470Z,14.80
2023-04-28T09:33:22.344Z,17.90
2023-04-28T09:35:49.231Z,12.20
2023-04-28T09:38:16.209Z,11.40
2023-04-28T09:41:04.095Z,18.00
2023-04-28T09:43:34.443Z,16.27
2023-04-28T09:46:03.432Z,12.57
2023-04-28T09:48:38.086Z,14.20
2023-04-28T09:51:05.982Z,14.07
2023-04-28T09:53:33.100Z,14.70
2023-04-28T09:56:01.195Z,11.98
2023-04-28T09:58:28.427Z,15.52
2023-04-28T10:00:59.153Z,14.00
2023-04-28T10:03:29.397Z,16.67
2023-04-28T10:05:58.035Z,11.48
2023-04-28T10:08:24.862Z,15.40
2023-04-28T10:10:54.911Z,17.13
2023-04-28T10:13:22.075Z,12.55
2023-04-28T10:15:49.587Z,18.30
2023-04-28T10:18:16.358Z,16.42
2023-04-28T10:20:47.076Z,16.55
2023-04-28T10:23:31.444Z,20.23
2023-04-28T10:25:59.647Z,15.82
2023-04-28T10:28:26.932Z,17.85
2023-04-28T10:31:12.811Z,18.55
2023-04-28T10:33:40.352Z,19.67
2023-04-28T10:36:07.430Z,21.30
2023-04-28T10:38:34.917Z,14.07
2023-04-28T10:41:04.590Z,15.73
2023-04-28T10:43:32.004Z,18.17
2023-04-28T10:46:01.490Z,18.70
2023-04-28T10:48:34.291Z,16.90
2023-04-28T10:53:42.543Z,18.52
2023-04-28T10:56:09.091Z,23.85
2023-04-28T10:58:37.633Z,20.45
2023-04-28T11:01:22.525Z,18.00
2023-04-28T11:04:13.185Z,21.08
2023-04-28T11:06:41.258Z,15.80
2023-04-28T11:09:19.615Z,21.45
2023-04-28T11:11:56.184Z,20.45
2023-04-28T11:14:22.542Z,20.73
2023-04-28T11:16:50.455Z,16.20
2023-04-28T11:19:18.856Z,15.80
2023-04-28T11:21:45.334Z,24.75
2023-04-28T11:24:11.963Z,16.23
2023-04-28T11:26:39.418Z,19.52
2023-04-28T11:29:06.015Z,15.32
2023-04-28T11:31:32.565Z,20.85
2023-04-28T11:34:06.173Z,21.45
2023-04-28T11:36:37.196Z,16.15
2023-04-28T11:39:08.195Z,16.95
2023-04-28T11:41:35.696Z,16.60
2023-04-28T11:44:16.692Z,16.73
2023-04-28T11:46:47.651Z,15.10
2023-04-28T11:49:15.059Z,15.43
2023-04-28T11:51:43.087Z,15.52
2023-04-28T11:54:14.628Z,16.02
2023-04-28T11:56:42.108Z,15.55
2023-04-28T11:59:10.479Z,19.65
2023-04-28T12:01:49.783Z,18.20
2023-04-28T12:04:41.661Z,19.70
2023-04-28T12:07:15.408Z,16.88
2023-04-28T12:09:46.542Z,24.15
2023-04-28T12:12:14.689Z,19.50
2023-04-28T12:14:56.827Z,22.20
2023-04-28T12:17:29.793Z,13.33
2023-04-28T12:19:56.775Z,15.60
2023-04-28T12:22:23.323Z,9.65
2023-04-28T12:25:09.658Z,11.27
2023-04-28T12:27:39.083Z,14.35
2023-04-28T12:30:21.060Z,18.08
2023-04-28T12:32:48.002Z,13.95
2023-04-28T12:35:14.562Z,19.95
2023-04-28T12:37:42.679Z,12.45
2023-04-28T12:40:09.484Z,16.45
2023-04-28T12:42:36.220Z,17.10
2023-04-28T12:45:02.892Z,12.60
2023-04-28T12:47:29.379Z,14.95
2023-04-28T12:49:55.940Z,17.17
2023-04-28T12:52:22.684Z,13.95
2023-04-28T12:54:49.285Z,16.95
2023-04-28T12:57:19.434Z,17.63
2023-04-28T12:59:47.693Z,16.75
2023-04-28T13:02:17.492Z,15.57
2023-04-28T13:04:46.000Z,15.70
2023-04-28T13:07:13.367Z,17.52
2023-04-28T13:09:40.100Z,13.65
2023-04-28T13:12:07.451Z,17.38
2023-04-28T13:14:34.094Z,19.17
2023-04-28T13:17:01.605Z,12.98
2023-04-28T13:19:29.594Z,15.10
2023-04-28T13:21:56.105Z,15.65
2023-04-28T13:24:22.621Z,14.77
2023-04-28T13:26:49.201Z,19.13
2023-04-28T13:29:15.840Z,14.30
2023-04-28T13:31:42.393Z,21.52
2023-04-28T13:34:12.111Z,15.98
2023-04-28T13:36:38.674Z,14.23
2023-04-28T13:39:06.208Z,12.93
2023-04-28T13:41:32.805Z,14.32
2023-04-28T13:43:59.763Z,15.82
2023-04-28T13:46:26.271Z,19.90
2023-04-28T13:48:52.782Z,13.85
2023-04-28T13:51:19.485Z,13.52
2023-04-28T13:53:46.570Z,11.88
2023-04-28T13:56:13.055Z,15.85
2023-04-28T13:58:39.693Z,12.45
2023-04-28T14:01:06.374Z,12.93
2023-04-28T14:03:33.695Z,13.23
2023-04-28T14:06:00.654Z,13.30
2023-04-28T14:08:28.001Z,20.10
2023-04-28T14:10:54.641Z,16.55
2023-04-28T14:13:21.387Z,14.73
2023-04-28T14:15:57.808Z,21.05
2023-04-28T14:18:26.070Z,14.48
2023-04-28T14:20:54.100Z,11.65
2023-04-28T14:23:21.127Z,16.92
2023-04-28T14:25:48.117Z,19.48
2023-04-28T14:28:14.646Z,12.90
2023-04-28T14:30:41.304Z,13.68
2023-04-28T14:33:07.948Z,20.05
2023-04-28T14:35:34.604Z,15.27
2023-04-28T14:38:01.285Z,14.45
2023-04-28T14:40:27.865Z,14.13
2023-04-28T14:42:54.851Z,21.15
2023-04-28T14:45:22.011Z,20.67
2023-04-28T14:47:48.852Z,18.73
2023-04-28T14:50:15.854Z,19.45
2023-04-28T14:52:42.505Z,18.27
2023-04-28T14:55:09.258Z,20.45
2023-04-28T14:57:37.600Z,19.80
2023-04-28T15:00:07.812Z,16.88
2023-04-28T15:02:34.786Z,24.95
2023-04-28T15:05:01.515Z,19.60
2023-04-28T15:07:31.284Z,20.35
2023-04-28T15:09:59.440Z,20.25
2023-04-28T15:12:26.264Z,19.30
2023-04-28T15:14:53.748Z,21.48
2023-04-28T15:17:21.560Z,19.83
2023-04-28T15:19:48.075Z,25.13
2023-04-28T15:22:14.651Z,18.08
2023-04-28T15:24:41.309Z,19.67
2023-04-28T15:27:07.873Z,18.05
2023-04-28T15:29:34.400Z,17.38
2023-04-28T15:32:00.985Z,22.15
2023-04-28T15:34:27.495Z,24.23
2023-04-28T15:36:54.064Z,27.23
2023-04-28T15:39:21.189Z,24.77
2023-04-28T15:41:47.771Z,24.15
2023-04-28T15:44:14.381Z,25.30
2023-04-28T15:46:41.116Z,20.20
2023-04-28T15:49:08.487Z,21.52
2023-04-28T15:51:34.995Z,24.45
2023-04-28T15:54:01.732Z,22.52
2023-04-28T15:56:28.390Z,20.05
2023-04-28T15:58:54.977Z,28.05
2023-04-28T16:01:22.461Z,25.80
2023-04-28T16:03:49.259Z,24.65
2023-04-28T16:06:15.963Z,28.15
2023-04-28T16:08:42.772Z,21.98
2023-04-28T16:11:10.924Z,25.45
2023-04-28T16:13:37.546Z,24.08
2023-04-28T16:16:04.460Z,19.10
2023-04-28T16:18:31.154Z,21.85
2023-04-28T16:20:58.299Z,18.70
2023-04-28T16:23:24.859Z,21.27
2023-04-28T16:25:51.609Z,24.75
2023-04-28T16:28:18.110Z,21.30
2023-04-28T16:30:44.704Z,17.40
2023-04-28T16:33:11.272Z,17.88
2023-04-28T16:35:37.827Z,24.85
2023-04-28T16:38:04.342Z,25.95
2023-04-28T16:40:30.908Z,22.15
2023-04-28T16:42:57.532Z,22.25
2023-04-28T16:45:24.144Z,22.90
2023-04-28T16:47:50.739Z,25.98
2023-04-28T16:50:17.731Z,28.20
2023-04-28T16:52:44.989Z,32.15
2023-04-28T16:55:11.671Z,26.27
2023-04-28T16:57:38.325Z,28.75
2023-04-28T17:00:06.282Z,35.50
2023-04-28T17:02:33.352Z,33.63
2023-04-28T17:05:00.318Z,26.42
2023-04-28T17:07:27.662Z,24.90
2023-04-28T17:09:54.364Z,26.85
2023-04-28T17:12:21.031Z,26.10
2023-04-28T17:14:47.857Z,28.33
2023-04-28T17:17:14.328Z,25.85
2023-04-28T17:19:42.134Z,31.42
2023-04-28T17:22:09.258Z,34.55
2023-04-28T17:24:36.004Z,27.40
2023-04-28T17:27:02.508Z,26.55
2023-04-28T17:29:29.040Z,34.53
2023-04-28T17:31:55.666Z,35.63
2023-04-28T17:34:22.919Z,30.23
2023-04-28T17:36:49.575Z,35.72
2023-04-28T17:39:16.742Z,27.40
2023-04-28T17:41:43.660Z,30.55
2023-04-28T17:44:10.233Z,39.42
2023-04-28T17:46:38.433Z,37.20
2023-04-28T17:49:05.324Z,37.75
2023-04-28T17:51:32.461Z,40.80
2023-04-28T17:53:59.117Z,38.55
2023-04-28T17:56:25.813Z,41.92
2023-04-28T17:58:52.467Z,47.65
2023-04-28T18:01:18.969Z,34.58
2023-04-28T18:03:45.656Z,39.10
2023-04-28T18:06:13.760Z,31.27
2023-04-28T18:08:40.937Z,32.50
2023-04-28T18:11:09.790Z,40.78
2023-04-28T18:13:36.414Z,36.00
2023-04-28T18:16:04.931Z,40.10
2023-04-28T18:18:34.053Z,35.28
2023-04-28T18:21:02.335Z,29.52
2023-04-28T18:23:30.285Z,33.00
2023-04-28T18:25:56.957Z,36.30
2023-04-28T18:28:23.759Z,52.10
2023-04-28T18:30:50.247Z,38.22
2023-04-28T18:33:22.285Z,49.35
2023-04-28T18:35:57.843Z,41.88
2023-04-28T18:38:24.350Z,38.53
2023-04-28T18:40:50.914Z,38.67
2023-04-28T18:43:17.432Z,37.22
2023-04-28T18:45:44.587Z,38.40
2023-04-28T18:48:11.601Z,53.95
2023-04-28T18:50:38.311Z,41.80
2023-04-28T18:53:05.336Z,40.10
2023-04-28T18:55:34.704Z,40.75
2023-04-28T18:58:04.206Z,46.97
2023-04-28T19:00:32.261Z,43.72
2023-04-28T19:02:58.899Z,44.05
2023-04-28T19:05:25.983Z,46.58
2023-04-28T19:07:52.456Z,40.35
2023-04-28T19:10:19.000Z,42.22
2023-04-28T19:12:45.869Z,40.20
2023-04-28T19:15:12.530Z,40.88
2023-04-28T19:17:39.511Z,38.30
2023-04-28T19:20:06.941Z,40.13
2023-04-28T19:22:35.728Z,38.38
2023-04-28T19:25:04.011Z,35.17
2023-04-28T19:27:32.145Z,39.55
2023-04-28T19:29:59.527Z,34.35
2023-04-28T19:32:26.106Z,59.90
2023-04-28T19:34:52.873Z,49.58
2023-04-28T19:37:19.991Z,42.22
2023-04-28T19:39:47.153Z,43.45
2023-04-28T19:42:13.782Z,46.97
2023-04-28T19:44:40.262Z,45.95
2023-04-28T19:47:07.394Z,40.40
2023-04-28T19:49:34.554Z,45.78
2023-04-28T19:52:01.209Z,50.00
2023-04-28T19:54:27.740Z,52.05
2023-04-28T19:56:54.525Z,50.28
2023-04-28T19:59:21.101Z,50.10
2023-04-28T20:01:47.663Z,55.97
2023-04-28T20:04:14.449Z,40.13
2023-04-28T20:06:41.453Z,61.55
2023-04-28T20:09:08.972Z,52.67
2023-04-28T20:11:35.692Z,129.65
2023-04-28T20:14:02.179Z,151.75
2023-04-28T20:16:28.781Z,47.70
2023-04-28T20:18:55.428Z,192.02
2023-04-28T20:21:22.455Z,1119.47
2023-04-28T20:23:48.997Z,104.65
2023-04-28T20:26:15.992Z,206.27
2023-04-28T20:28:46.446Z,100.32
2023-04-28T20:31:13.122Z,95.95
2023-04-28T20:33:40.258Z,106.53
2023-04-28T20:36:06.774Z,593.17
2023-04-28T20:38:33.362Z,164.43
2023-04-28T20:40:59.986Z,591.97
2023-04-28T20:43:26.637Z,1478.10
2023-04-28T20:45:53.092Z,47.35
2023-04-28T20:48:19.619Z,90.53
2023-04-28T20:50:48.483Z,158.05
2023-04-28T20:53:14.972Z,739.97
2023-04-28T20:55:41.540Z,1999.90
2023-04-28T20:58:08.044Z,1575.00
2023-04-28T21:00:38.157Z,1774.90
2023-04-28T21:03:05.349Z,702.65
2023-04-28T21:05:31.970Z,1098.45
2023-04-28T21:07:58.454Z,1149.88
2023-04-28T21:10:24.930Z,662.47
2023-04-28T21:12:51.391Z,530.13
2023-04-28T21:15:18.002Z,1252.07
2023-04-28T21:17:44.499Z,970.00
2023-04-28T21:20:11.716Z,809.80
2023-04-28T21:22:38.225Z,700.47
2023-04-28T21:25:06.052Z,282.33
2023-04-28T21:27:32.568Z,919.22
2023-04-28T21:29:59.122Z,733.90
2023-04-28T21:32:25.637Z,1099.00
2023-04-28T21:34:52.221Z,431.40
2023-04-28T21:37:18.809Z,449.10
2023-04-28T21:39:45.863Z,171.82
2023-04-28T21:42:12.327Z,18.13
2023-04-28T21:44:38.796Z,20.25
2023-04-28T21:47:06.848Z,15.23
2023-04-28T21:49:33.326Z,19.30
2023-04-28T21:51:59.785Z,41.17
2023-04-28T21:54:26.282Z,154.25
2023-04-28T21:56:52.835Z,30.50
2023-04-28T21:59:19.379Z,80.22
2023-04-28T22:01:45.926Z,8.02
2023-04-28T22:04:12.804Z,974.40
2023-04-28T22:06:39.439Z,1026.60
2023-04-28T22:09:07.026Z,741.35
2023-04-28T22:11:33.855Z,22.73
2023-04-28T22:14:00.830Z,7.18
2023-04-28T22:16:28.027Z,9.48
2023-04-28T22:18:54.540Z,10.38
2023-04-28T22:21:21.039Z,11.27
2023-04-28T22:23:47.698Z,10.68
2023-04-28T22:26:14.889Z,16.05
2023-04-28T22:28:41.687Z,9.38
2023-04-28T22:31:08.345Z,40.28
2023-04-28T22:33:35.394Z,25.70
2023-04-28T22:36:02.216Z,26.23
2023-04-28T22:38:28.699Z,15.85
2023-04-28T22:40:55.235Z,16.55
2023-04-28T22:43:21.813Z,11.70
2023-04-28T22:45:48.560Z,12.07
2023-04-28T22:48:15.109Z,13.10
2023-04-28T22:50:41.610Z,13.70
2023-04-28T22:53:08.112Z,11.82
2023-04-28T22:55:34.605Z,8.05
2023-04-28T22:58:01.146Z,14.68
2023-04-28T23:00:27.652Z,8.25
2023-04-28T23:02:54.218Z,10.05
2023-04-28T23:05:20.867Z,7.75
2023-04-28T23:07:47.347Z,19.17
2023-04-28T23:10:14.661Z,18.38
2023-04-28T23:12:41.309Z,8.32
2023-04-28T23:15:08.176Z,10.55
2023-04-28T23:17:34.697Z,12.45
2023-04-28T23:20:01.194Z,19.20
2023-04-28T23:22:27.755Z,17.95
2023-04-28T23:24:54.215Z,15.10
2023-04-28T23:27:20.680Z,26.77
2023-04-28T23:29:47.180Z,7.07
2023-04-28T23:32:13.672Z,6.30
2023-04-28T23:34:42.056Z,12.93
2023-04-28T23:37:08.848Z,7.63
2023-04-28T23:39:35.311Z,12.02
2023-04-28T23:42:02.322Z,7.07
2023-04-28T23:44:28.888Z,11.45
2023-04-28T23:46:56.357Z,35.42
2023-04-28T23:49:23.056Z,16.08
2023-04-28T23:51:49.656Z,19.98
2023-04-28T23:54:16.356Z,8.55
2023-04-28T23:56:42.833Z,26.33
2023-04-28T23:59:09.373Z,18.98
